createdAt,value
2022-12-05T00:01:20.243Z,2.72
2022-12-05T00:03:59.323Z,2.73
2022-12-05T00:06:35.011Z,2.75
2022-12-05T00:09:09.963Z,2.76
2022-12-05T00:11:46.076Z,2.79
2022-12-05T00:14:19.520Z,2.78
2022-12-05T00:16:53.660Z,2.71
2022-12-05T00:19:27.107Z,2.68
2022-12-05T00:22:00.417Z,2.66
2022-12-05T00:24:33.799Z,2.62
2022-12-05T00:27:07.229Z,2.58
2022-12-05T00:29:40.883Z,2.57
2022-12-05T00:32:14.206Z,2.58
2022-12-05T00:34:47.939Z,2.56
2022-12-05T00:37:21.686Z,2.57
2022-12-05T00:39:55.372Z,2.61
2022-12-05T00:42:29.652Z,2.60
2022-12-05T00:45:03.052Z,2.59
2022-12-05T00:47:38.129Z,2.58
2022-12-05T00:50:12.560Z,2.59
2022-12-05T00:52:45.857Z,2.58
2022-12-05T00:55:19.331Z,2.55
2022-12-05T00:57:52.820Z,2.50
2022-12-05T01:00:26.566Z,2.51
2022-12-05T01:03:01.445Z,2.55
2022-12-05T01:05:37.091Z,2.57
2022-12-05T01:08:10.454Z,2.60
2022-12-05T01:10:43.734Z,2.60
2022-12-05T01:13:17.411Z,2.59
2022-12-05T01:15:50.861Z,2.60
2022-12-05T01:18:25.093Z,2.64
2022-12-05T01:20:58.511Z,2.69
2022-12-05T01:23:32.276Z,2.67
2022-12-05T01:26:10.769Z,2.68
2022-12-05T01:28:45.009Z,2.66
2022-12-05T01:31:24.133Z,2.66
2022-12-05T01:34:00.901Z,2.68
2022-12-05T01:36:35.130Z,2.66
2022-12-05T01:39:08.980Z,2.65
2022-12-05T01:41:45.594Z,2.65
2022-12-05T01:44:54.043Z,2.65
2022-12-05T01:47:30.745Z,2.56
2022-12-05T01:50:05.349Z,2.47
2022-12-05T01:52:40.062Z,2.39
2022-12-05T01:55:17.443Z,2.33
2022-12-05T01:57:51.515Z,2.29
2022-12-05T02:00:25.844Z,2.28
2022-12-05T02:03:01.458Z,2.29
2022-12-05T02:05:36.647Z,2.33
2022-12-05T02:08:13.289Z,2.41
2022-12-05T02:10:49.144Z,2.45
2022-12-05T02:13:45.467Z,2.48
2022-12-05T02:16:30.194Z,2.49
2022-12-05T02:19:18.448Z,2.46
2022-12-05T02:22:11.673Z,2.43
2022-12-05T02:25:24.452Z,2.47
2022-12-05T02:28:21.860Z,2.52
2022-12-05T02:31:00.070Z,2.50
2022-12-05T02:33:42.250Z,2.47
2022-12-05T02:36:24.618Z,2.50
2022-12-05T02:39:06.123Z,2.54
2022-12-05T02:41:47.473Z,2.54
2022-12-05T02:44:24.308Z,2.53
2022-12-05T02:46:58.476Z,2.51
2022-12-05T02:49:35.698Z,2.50
2022-12-05T02:52:14.238Z,2.51
2022-12-05T02:54:48.379Z,2.51
2022-12-05T02:57:24.948Z,2.52
2022-12-05T02:59:58.440Z,2.52
2022-12-05T03:02:35.347Z,2.50
2022-12-05T03:05:21.704Z,2.46
2022-12-05T03:07:59.908Z,2.46
2022-12-05T03:10:38.620Z,2.49
2022-12-05T03:13:17.685Z,2.50
2022-12-05T03:15:54.830Z,2.52
2022-12-05T03:18:32.426Z,2.53
2022-12-05T03:21:13.369Z,2.50
2022-12-05T03:23:51.246Z,2.50
2022-12-05T03:26:35.716Z,2.50
2022-12-05T03:29:20.210Z,2.48
2022-12-05T03:32:03.864Z,2.44
2022-12-05T03:34:49.747Z,2.37
2022-12-05T03:37:29.558Z,2.32
2022-12-05T03:40:13.379Z,2.31
2022-12-05T03:42:55.656Z,2.31
2022-12-05T03:45:36.499Z,2.31
2022-12-05T03:48:16.786Z,2.33
2022-12-05T03:50:52.110Z,2.35
2022-12-05T03:53:30.507Z,2.34
2022-12-05T03:56:07.981Z,2.33
2022-12-05T03:58:45.428Z,2.36
2022-12-05T04:01:21.165Z,2.40
2022-12-05T04:03:59.245Z,2.40
2022-12-05T04:06:36.325Z,2.38
2022-12-05T04:09:17.311Z,2.37
2022-12-05T04:11:56.337Z,2.35
2022-12-05T04:14:31.457Z,2.32
2022-12-05T04:17:09.624Z,2.29
2022-12-05T04:20:05.961Z,2.27
2022-12-05T04:22:40.438Z,2.28
2022-12-05T04:25:35.568Z,2.31
2022-12-05T04:28:23.520Z,2.38
2022-12-05T04:31:04.688Z,2.41
2022-12-05T04:33:44.960Z,2.44
2022-12-05T04:36:23.227Z,2.48
2022-12-05T04:39:01.665Z,2.44
2022-12-05T04:41:39.224Z,2.43
2022-12-05T04:44:17.724Z,2.46
2022-12-05T04:46:55.030Z,2.44
2022-12-05T04:49:32.635Z,2.41
2022-12-05T04:52:10.115Z,2.43
2022-12-05T04:54:48.656Z,2.46
2022-12-05T04:57:26.663Z,2.44
2022-12-05T05:00:00.755Z,2.45
2022-12-05T05:02:42.392Z,2.41
2022-12-05T05:05:18.758Z,2.35
2022-12-05T05:07:56.859Z,2.33
2022-12-05T05:10:41.581Z,2.38
2022-12-05T05:13:15.554Z,2.38
2022-12-05T05:15:49.319Z,2.35
2022-12-05T05:18:23.051Z,2.32
2022-12-05T05:20:56.250Z,2.37
2022-12-05T05:23:29.926Z,2.42
2022-12-05T05:26:03.577Z,2.45
2022-12-05T05:28:37.519Z,2.49
2022-12-05T05:31:11.302Z,2.53
2022-12-05T05:33:45.117Z,2.55
2022-12-05T05:36:19.700Z,2.55
2022-12-05T05:38:55.142Z,2.55
2022-12-05T05:41:31.340Z,2.54
2022-12-05T05:44:05.526Z,2.51
2022-12-05T05:46:39.282Z,2.47
2022-12-05T05:49:13.854Z,2.43
2022-12-05T05:51:47.160Z,2.41
2022-12-05T05:54:20.807Z,2.39
2022-12-05T05:56:54.310Z,2.36
2022-12-05T05:59:27.904Z,2.35
2022-12-05T06:02:01.562Z,2.39
2022-12-05T06:04:36.280Z,2.44
2022-12-05T06:07:09.762Z,2.45
2022-12-05T06:09:43.417Z,2.42
2022-12-05T06:12:17.298Z,2.36
2022-12-05T06:14:52.972Z,2.38
2022-12-05T06:17:26.685Z,2.38
2022-12-05T06:20:00.897Z,2.38
2022-12-05T06:22:34.659Z,2.39
2022-12-05T06:25:09.469Z,2.42
2022-12-05T06:27:43.104Z,2.40
2022-12-05T06:30:18.224Z,2.38
2022-12-05T06:32:51.739Z,2.34
2022-12-05T06:35:25.284Z,2.32
2022-12-05T06:37:58.944Z,2.37
2022-12-05T06:40:32.680Z,2.44
2022-12-05T06:43:06.030Z,2.48
2022-12-05T06:45:41.138Z,2.47
2022-12-05T06:48:15.443Z,2.45
2022-12-05T06:50:53.988Z,2.49
2022-12-05T06:53:25.720Z,2.51
2022-12-05T06:56:03.952Z,2.52
2022-12-05T06:58:37.400Z,2.53
2022-12-05T07:01:32.690Z,2.52
2022-12-05T07:04:08.118Z,2.54
2022-12-05T07:06:46.156Z,2.59
2022-12-05T07:09:45.300Z,2.60
2022-12-05T07:12:20.877Z,2.58
2022-12-05T07:14:54.396Z,2.64
2022-12-05T07:17:27.912Z,2.74
2022-12-05T07:20:02.376Z,2.79
2022-12-05T07:22:37.716Z,2.79
2022-12-05T07:25:12.311Z,2.73
2022-12-05T07:27:46.024Z,2.74
2022-12-05T07:30:20.191Z,2.71
2022-12-05T07:32:54.240Z,2.73
2022-12-05T07:35:27.908Z,2.75
2022-12-05T07:38:01.525Z,2.79
2022-12-05T07:40:35.601Z,2.75
2022-12-05T07:43:09.164Z,2.75
2022-12-05T07:45:42.799Z,2.77
2022-12-05T07:48:18.688Z,2.80
2022-12-05T07:50:52.672Z,2.79
2022-12-05T07:53:26.665Z,2.78
2022-12-05T07:56:02.547Z,2.81
2022-12-05T07:58:37.312Z,2.84
2022-12-05T08:01:12.933Z,2.85
2022-12-05T08:03:47.235Z,2.88
2022-12-05T08:06:22.673Z,2.95
2022-12-05T08:08:56.985Z,3.03
2022-12-05T08:11:32.832Z,3.03
2022-12-05T08:14:07.717Z,3.01
2022-12-05T08:16:41.285Z,3.00
2022-12-05T08:19:18.305Z,2.98
2022-12-05T08:21:52.758Z,2.96
2022-12-05T08:24:26.703Z,2.93
2022-12-05T08:26:59.966Z,2.90
2022-12-05T08:29:33.664Z,2.87
2022-12-05T08:32:07.470Z,2.88
2022-12-05T08:34:41.545Z,2.91
2022-12-05T08:37:14.959Z,2.93
2022-12-05T08:39:48.542Z,2.97
2022-12-05T08:42:21.928Z,3.01
2022-12-05T08:44:55.463Z,3.03
2022-12-05T08:47:29.870Z,3.06
2022-12-05T08:50:04.600Z,3.00
2022-12-05T08:52:38.740Z,2.90
2022-12-05T08:55:13.219Z,2.84
2022-12-05T08:57:46.726Z,2.89
2022-12-05T09:00:22.293Z,2.96
2022-12-05T09:02:56.135Z,2.94
2022-12-05T09:05:30.847Z,2.91
2022-12-05T09:08:05.406Z,2.94
2022-12-05T09:10:40.839Z,2.97
2022-12-05T09:13:14.982Z,2.97
2022-12-05T09:15:48.246Z,3.01
2022-12-05T09:18:21.579Z,3.04
2022-12-05T09:20:55.142Z,3.04
2022-12-05T09:23:28.739Z,3.11
2022-12-05T09:26:03.440Z,3.18
2022-12-05T09:28:37.434Z,3.22
2022-12-05T09:31:13.789Z,3.26
2022-12-05T09:33:50.673Z,3.34
2022-12-05T09:36:25.978Z,3.33
2022-12-05T09:39:02.007Z,3.27
2022-12-05T09:42:13.604Z,3.35
2022-12-05T09:44:57.714Z,3.45
2022-12-05T09:47:47.915Z,3.53
2022-12-05T09:50:28.629Z,3.63
2022-12-05T09:53:12.527Z,3.70
2022-12-05T09:55:54.476Z,3.71
2022-12-05T09:58:38.949Z,3.64
2022-12-05T10:01:26.856Z,3.57
2022-12-05T10:04:19.263Z,3.58
2022-12-05T10:07:03.511Z,3.56
2022-12-05T10:09:55.667Z,3.51
2022-12-05T10:12:46.941Z,3.42
2022-12-05T10:15:29.201Z,3.30
2022-12-05T10:18:11.098Z,3.24
2022-12-05T10:20:49.983Z,3.26
2022-12-05T10:23:56.015Z,3.31
2022-12-05T10:26:23.776Z,3.34
2022-12-05T10:29:04.137Z,3.31
2022-12-05T10:31:41.610Z,3.30
2022-12-05T10:34:23.820Z,3.35
2022-12-05T10:37:03.408Z,3.33
2022-12-05T10:39:37.642Z,3.35
2022-12-05T10:42:18.918Z,3.41
2022-12-05T10:44:57.253Z,3.44
2022-12-05T10:47:29.209Z,3.48
2022-12-05T10:50:10.083Z,3.49
2022-12-05T10:52:43.500Z,3.55
2022-12-05T10:55:21.711Z,3.59
2022-12-05T10:58:16.847Z,3.62
2022-12-05T11:00:53.899Z,3.58
2022-12-05T11:03:31.124Z,3.54
2022-12-05T11:06:19.141Z,3.49
2022-12-05T11:09:05.782Z,3.43
2022-12-05T11:11:40.032Z,3.42
2022-12-05T11:14:27.665Z,3.44
2022-12-05T11:17:04.459Z,3.43
2022-12-05T11:19:40.009Z,3.45
2022-12-05T11:22:20.897Z,3.48
2022-12-05T11:24:55.077Z,3.53
2022-12-05T11:27:33.588Z,3.54
2022-12-05T11:30:21.733Z,3.51
2022-12-05T11:33:12.790Z,3.49
2022-12-05T11:35:47.644Z,3.51
2022-12-05T11:38:26.306Z,3.52
2022-12-05T11:41:12.540Z,3.50
2022-12-05T11:44:05.051Z,3.47
2022-12-05T11:46:48.427Z,3.48
2022-12-05T11:49:58.219Z,3.47
2022-12-05T11:52:40.390Z,3.51
2022-12-05T11:55:16.788Z,3.56
2022-12-05T11:58:05.197Z,3.55
2022-12-05T12:00:40.698Z,3.55
2022-12-05T12:03:28.500Z,3.49
2022-12-05T12:06:12.109Z,3.42
2022-12-05T12:08:51.894Z,3.37
2022-12-05T12:11:28.682Z,3.34
2022-12-05T12:14:07.077Z,3.33
2022-12-05T12:16:45.607Z,3.28
2022-12-05T12:19:32.158Z,3.29
2022-12-05T12:22:15.830Z,3.38
2022-12-05T12:24:57.094Z,3.49
2022-12-05T12:27:34.313Z,3.50
2022-12-05T12:30:09.766Z,3.52
2022-12-05T12:32:45.502Z,3.54
2022-12-05T12:35:29.776Z,3.55
2022-12-05T12:38:19.087Z,3.59
2022-12-05T12:40:53.566Z,3.62
2022-12-05T12:46:32.171Z,3.64
2022-12-05T12:49:24.068Z,3.63
2022-12-05T12:51:56.638Z,3.56
2022-12-05T12:55:03.342Z,3.49
2022-12-05T12:57:47.152Z,3.42
2022-12-05T13:00:23.803Z,3.40
2022-12-05T13:02:58.912Z,3.39
2022-12-05T13:05:35.101Z,3.39
2022-12-05T13:08:12.910Z,3.39
2022-12-05T13:10:45.747Z,3.39
2022-12-05T13:13:20.226Z,3.38
2022-12-05T13:15:52.898Z,3.34
2022-12-05T13:18:26.667Z,3.31
2022-12-05T13:20:59.794Z,3.28
2022-12-05T13:23:32.600Z,3.34
2022-12-05T13:26:09.443Z,3.39
2022-12-05T13:28:43.582Z,3.41
2022-12-05T13:31:18.163Z,3.43
2022-12-05T13:33:51.231Z,3.41
2022-12-05T13:36:41.426Z,3.43
2022-12-05T13:39:39.187Z,3.51
2022-12-05T13:42:21.891Z,3.60
2022-12-05T13:44:55.155Z,3.70
2022-12-05T13:47:33.008Z,3.72
2022-12-05T13:50:10.843Z,3.70
2022-12-05T13:52:46.432Z,3.67
2022-12-05T13:55:26.880Z,3.60
2022-12-05T13:58:02.751Z,3.55
2022-12-05T14:00:37.390Z,3.57
2022-12-05T14:03:19.976Z,3.58
2022-12-05T14:05:53.646Z,3.59
2022-12-05T14:08:47.817Z,3.65
2022-12-05T14:11:19.826Z,3.69
2022-12-05T14:13:51.857Z,3.70
2022-12-05T14:16:49.885Z,3.70
2022-12-05T14:19:36.386Z,3.68
2022-12-05T14:22:18.717Z,3.69
2022-12-05T14:24:55.650Z,3.72
2022-12-05T14:27:41.747Z,3.74
2022-12-05T14:30:19.159Z,3.68
2022-12-05T14:32:51.532Z,3.63
2022-12-05T14:35:26.372Z,3.62
2022-12-05T14:37:59.156Z,3.64
2022-12-05T14:40:34.389Z,3.65
2022-12-05T14:43:07.322Z,3.65
2022-12-05T14:45:40.519Z,3.64
2022-12-05T14:48:28.455Z,3.60
2022-12-05T14:51:01.198Z,3.55
2022-12-05T14:53:39.426Z,3.55
2022-12-05T14:56:22.887Z,3.54
2022-12-05T14:58:57.556Z,3.51
2022-12-05T15:01:31.335Z,3.52
2022-12-05T15:04:19.583Z,3.56
2022-12-05T15:06:54.329Z,3.60
2022-12-05T15:09:38.257Z,3.60
2022-12-05T15:12:15.184Z,3.55
2022-12-05T15:14:49.785Z,3.51
2022-12-05T15:17:25.440Z,3.49
2022-12-05T15:20:04.542Z,3.52
2022-12-05T15:22:39.455Z,3.58
2022-12-05T15:25:23.040Z,3.60
2022-12-05T15:27:59.209Z,3.59
2022-12-05T15:30:31.728Z,3.54
2022-12-05T15:33:03.724Z,3.52
2022-12-05T15:35:36.151Z,3.50
2022-12-05T15:38:14.228Z,3.50
2022-12-05T15:40:48.378Z,3.51
2022-12-05T15:43:33.803Z,3.52
2022-12-05T15:46:21.442Z,3.57
2022-12-05T15:48:53.524Z,3.60
2022-12-05T15:51:26.807Z,3.56
2022-12-05T15:54:01.708Z,3.56
2022-12-05T15:56:36.110Z,3.51
2022-12-05T15:59:13.909Z,3.48
2022-12-05T16:01:48.019Z,3.46
2022-12-05T16:04:27.905Z,3.47
2022-12-05T16:07:05.286Z,3.47
2022-12-05T16:09:41.257Z,3.44
2022-12-05T16:12:21.122Z,3.45
2022-12-05T16:15:01.821Z,3.47
2022-12-05T16:17:39.719Z,3.50
2022-12-05T16:20:23.697Z,3.53
2022-12-05T16:22:56.269Z,3.50
2022-12-05T16:25:29.310Z,3.49
2022-12-05T16:28:02.798Z,3.48
2022-12-05T16:30:34.866Z,3.48
2022-12-05T16:33:09.234Z,3.49
2022-12-05T16:35:42.191Z,3.49
2022-12-05T16:38:16.813Z,3.52
2022-12-05T16:40:56.377Z,3.59
2022-12-05T16:43:30.617Z,3.64
2022-12-05T16:46:23.350Z,3.68
2022-12-05T16:49:16.983Z,3.71
2022-12-05T16:51:57.430Z,3.70
2022-12-05T16:54:31.058Z,3.70
2022-12-05T16:57:03.438Z,3.68
2022-12-05T16:59:36.472Z,3.68
2022-12-05T17:02:13.183Z,3.68
2022-12-05T17:04:47.143Z,3.63
2022-12-05T17:07:19.239Z,3.65
2022-12-05T17:09:51.961Z,3.68
2022-12-05T17:12:25.965Z,3.68
2022-12-05T17:14:59.002Z,3.74
2022-12-05T17:17:32.590Z,3.79
2022-12-05T17:20:05.995Z,3.78
2022-12-05T17:22:38.960Z,3.77
2022-12-05T17:25:19.508Z,3.79
2022-12-05T17:27:51.295Z,3.83
2022-12-05T17:30:23.494Z,3.86
2022-12-05T17:32:56.077Z,3.86
2022-12-05T17:35:31.748Z,3.86
2022-12-05T17:38:11.173Z,3.80
2022-12-05T17:40:47.700Z,3.76
2022-12-05T17:43:25.026Z,3.76
2022-12-05T17:46:01.482Z,3.75
2022-12-05T17:48:33.363Z,3.69
2022-12-05T17:51:11.382Z,3.64
2022-12-05T17:53:45.672Z,3.60
2022-12-05T17:56:17.907Z,3.64
2022-12-05T17:58:51.559Z,3.70
2022-12-05T18:01:23.435Z,3.69
2022-12-05T18:03:56.546Z,3.64
2022-12-05T18:06:29.257Z,3.61
2022-12-05T18:09:02.487Z,3.61
2022-12-05T18:11:35.019Z,3.62
2022-12-05T18:14:09.466Z,3.62
2022-12-05T18:16:41.804Z,3.61
2022-12-05T18:19:14.519Z,3.65
2022-12-05T18:24:24.539Z,3.67
2022-12-05T18:26:59.225Z,3.65
2022-12-05T18:29:31.810Z,3.63
2022-12-05T18:32:05.927Z,3.65
2022-12-05T18:34:38.934Z,3.65
2022-12-05T18:37:12.818Z,3.67
2022-12-05T18:39:45.380Z,3.68
2022-12-05T18:42:17.429Z,3.73
2022-12-05T18:44:51.044Z,3.74
2022-12-05T18:47:25.609Z,3.73
2022-12-05T18:50:01.861Z,3.71
2022-12-05T18:52:37.426Z,3.73
2022-12-05T18:55:17.138Z,3.74
2022-12-05T18:57:50.915Z,3.74
2022-12-05T19:00:24.213Z,3.73
2022-12-05T19:02:57.907Z,3.73
2022-12-05T19:05:32.179Z,3.75
2022-12-05T19:08:04.932Z,3.79
2022-12-05T19:10:39.107Z,3.83
2022-12-05T19:13:12.955Z,3.83
2022-12-05T19:15:46.029Z,3.82
2022-12-05T19:18:19.255Z,3.82
2022-12-05T19:20:55.059Z,3.84
2022-12-05T19:23:28.974Z,3.80
2022-12-05T19:26:04.661Z,3.78
2022-12-05T19:28:37.957Z,3.81
2022-12-05T19:31:11.703Z,3.83
2022-12-05T19:33:45.265Z,3.85
2022-12-05T19:36:18.643Z,3.85
2022-12-05T19:38:52.463Z,3.85
2022-12-05T19:41:26.072Z,3.82
2022-12-05T19:44:01.214Z,3.84
2022-12-05T19:46:35.166Z,3.84
2022-12-05T19:49:09.034Z,3.83
2022-12-05T19:51:41.730Z,3.80
2022-12-05T19:54:18.574Z,3.77
2022-12-05T19:56:52.088Z,3.76
2022-12-05T19:59:26.907Z,3.77
2022-12-05T20:01:59.696Z,3.77
2022-12-05T20:04:32.684Z,3.77
2022-12-05T20:07:06.164Z,3.76
2022-12-05T20:09:39.946Z,3.76
2022-12-05T20:12:13.530Z,3.80
2022-12-05T20:14:47.732Z,3.84
2022-12-05T20:17:24.167Z,3.84
2022-12-05T20:19:57.454Z,3.83
2022-12-05T20:22:31.819Z,3.86
2022-12-05T20:25:08.614Z,3.88
2022-12-05T20:27:41.137Z,3.88
2022-12-05T20:30:14.847Z,3.88
2022-12-05T20:32:48.987Z,3.87
2022-12-05T20:35:24.426Z,3.87
2022-12-05T20:37:57.029Z,3.88
2022-12-05T20:40:29.859Z,3.88
2022-12-05T20:43:03.220Z,3.87
2022-12-05T20:45:36.286Z,3.88
2022-12-05T20:48:09.066Z,3.93
2022-12-05T20:50:42.371Z,3.97
2022-12-05T20:53:23.652Z,3.99
2022-12-05T20:55:56.382Z,4.01
2022-12-05T20:58:29.739Z,4.04
2022-12-05T21:01:03.349Z,4.04
2022-12-05T21:03:35.725Z,4.04
2022-12-05T21:06:13.056Z,4.04
2022-12-05T21:08:45.055Z,4.02
2022-12-05T21:11:20.505Z,4.00
2022-12-05T21:13:52.835Z,4.01
2022-12-05T21:16:26.122Z,4.01
2022-12-05T21:18:58.458Z,3.99
2022-12-05T21:21:34.460Z,3.98
2022-12-05T21:24:07.381Z,3.95
2022-12-05T21:26:40.235Z,3.90
2022-12-05T21:29:12.347Z,3.87
2022-12-05T21:31:45.700Z,3.88
2022-12-05T21:34:20.720Z,3.89
2022-12-05T21:36:52.672Z,3.92
2022-12-05T21:39:25.155Z,3.95
2022-12-05T21:41:56.791Z,3.91
2022-12-05T21:44:28.546Z,3.86
2022-12-05T21:47:00.602Z,3.85
2022-12-05T21:49:32.942Z,3.89
2022-12-05T21:52:04.915Z,3.91
2022-12-05T21:54:36.377Z,3.93
2022-12-05T21:57:07.995Z,3.94
2022-12-05T21:59:39.869Z,3.92
2022-12-05T22:02:13.077Z,3.91
2022-12-05T22:04:45.362Z,3.89
2022-12-05T22:07:17.430Z,3.90
2022-12-05T22:09:49.241Z,3.87
2022-12-05T22:12:21.104Z,3.86
2022-12-05T22:14:52.815Z,3.85
2022-12-05T22:17:24.959Z,3.84
2022-12-05T22:19:57.799Z,3.86
2022-12-05T22:22:30.387Z,3.89
2022-12-05T22:25:02.544Z,3.91
2022-12-05T22:27:34.260Z,3.88
2022-12-05T22:30:06.599Z,3.84
2022-12-05T22:32:38.744Z,3.83
2022-12-05T22:35:11.333Z,3.82
2022-12-05T22:37:42.927Z,3.83
2022-12-05T22:40:14.914Z,3.82
2022-12-05T22:42:46.493Z,3.82
2022-12-05T22:45:18.577Z,3.85
2022-12-05T22:47:50.342Z,3.82
2022-12-05T22:50:22.335Z,3.78
2022-12-05T22:52:55.476Z,3.74
2022-12-05T22:55:27.052Z,3.72
2022-12-05T22:57:58.823Z,3.72
2022-12-05T23:00:31.068Z,3.72
2022-12-05T23:03:03.448Z,3.72
2022-12-05T23:05:40.276Z,3.73
2022-12-05T23:08:12.530Z,3.75
2022-12-05T23:10:44.500Z,3.80
2022-12-05T23:13:16.226Z,3.84
2022-12-05T23:15:48.287Z,3.87
2022-12-05T23:18:21.303Z,3.85
2022-12-05T23:20:53.047Z,3.84
2022-12-05T23:23:25.056Z,3.86
2022-12-05T23:25:59.450Z,3.90
2022-12-05T23:28:31.482Z,3.92
2022-12-05T23:31:05.196Z,3.92
2022-12-05T23:33:37.485Z,3.91
2022-12-05T23:36:10.197Z,3.90
2022-12-05T23:38:42.592Z,3.91
2022-12-05T23:41:15.668Z,3.94
2022-12-05T23:43:48.052Z,3.97
2022-12-05T23:46:20.953Z,4.01
2022-12-05T23:48:52.794Z,4.01
2022-12-05T23:51:25.526Z,4.02
2022-12-05T23:53:57.989Z,4.02
2022-12-05T23:56:30.982Z,3.99
2022-12-05T23:59:03.333Z,3.98
